createdAt,value
2023-04-12T00:01:35.040Z,73.63
2023-04-12T00:04:38.517Z,56.90
2023-04-12T00:07:43.368Z,65.30
2023-04-12T00:10:46.809Z,95.30
2023-04-12T00:13:49.962Z,88.00
2023-04-12T00:16:53.395Z,83.32
2023-04-12T00:19:56.711Z,78.07
2023-04-12T00:22:59.834Z,73.15
2023-04-12T00:26:03.043Z,73.63
2023-04-12T00:29:06.379Z,69.28
2023-04-12T00:32:09.644Z,62.78
2023-04-12T00:35:12.947Z,63.33
2023-04-12T00:38:16.889Z,75.35
2023-04-12T00:41:20.113Z,57.28
2023-04-12T00:44:24.098Z,64.13
2023-04-12T00:47:30.241Z,56.97
2023-04-12T00:50:33.552Z,48.10
2023-04-12T00:53:37.268Z,45.50
2023-04-12T00:56:43.353Z,64.00
2023-04-12T00:59:47.878Z,45.88
2023-04-12T01:02:51.651Z,51.35
2023-04-12T01:06:05.039Z,41.67
2023-04-12T01:09:30.874Z,33.83
2023-04-12T01:12:33.993Z,48.47
2023-04-12T01:15:48.421Z,38.33
2023-04-12T01:18:52.970Z,33.13
2023-04-12T01:22:21.057Z,40.75
2023-04-12T01:25:48.811Z,38.85
2023-04-12T01:28:55.283Z,30.02
2023-04-12T01:32:03.518Z,35.60
2023-04-12T01:35:11.617Z,38.28
2023-04-12T01:38:15.203Z,37.97
2023-04-12T01:41:20.565Z,31.48
2023-04-12T01:44:23.980Z,27.45
2023-04-12T01:47:29.180Z,26.08
2023-04-12T01:51:13.971Z,46.40
2023-04-12T01:54:26.330Z,25.38
2023-04-12T01:57:30.470Z,10.60
2023-04-12T02:00:37.680Z,13.35
2023-04-12T02:03:43.734Z,9.13
2023-04-12T02:06:48.479Z,8.25
2023-04-12T02:09:51.997Z,6.25
2023-04-12T02:12:56.317Z,9.77
2023-04-12T02:16:00.353Z,9.77
2023-04-12T02:19:04.688Z,8.35
2023-04-12T02:22:09.072Z,34.00
2023-04-12T02:25:13.390Z,42.70
2023-04-12T02:28:19.719Z,11.38
2023-04-12T02:31:25.261Z,34.60
2023-04-12T02:34:34.849Z,35.13
2023-04-12T02:37:49.343Z,32.25
2023-04-12T02:40:52.532Z,37.42
2023-04-12T02:43:56.610Z,23.00
2023-04-12T02:47:00.541Z,19.63
2023-04-12T02:50:06.345Z,32.95
2023-04-12T02:53:18.410Z,21.65
2023-04-12T02:56:30.844Z,32.90
2023-04-12T02:59:43.650Z,21.30
2023-04-12T03:03:03.822Z,17.90
2023-04-12T03:06:10.179Z,20.73
2023-04-12T03:09:14.070Z,19.80
2023-04-12T03:12:17.631Z,17.15
2023-04-12T03:15:44.321Z,19.17
2023-04-12T03:18:48.754Z,9.48
2023-04-12T03:21:52.425Z,12.77
2023-04-12T03:24:55.985Z,20.95
2023-04-12T03:27:59.181Z,18.42
2023-04-12T03:31:21.738Z,12.98
2023-04-12T03:34:33.017Z,13.65
2023-04-12T03:37:43.566Z,17.17
2023-04-12T03:40:48.146Z,13.30
2023-04-12T03:43:55.945Z,15.10
2023-04-12T03:46:59.649Z,16.67
2023-04-12T03:50:12.053Z,17.77
2023-04-12T03:53:22.732Z,18.95
2023-04-12T03:56:26.977Z,9.82
2023-04-12T03:59:33.402Z,9.45
2023-04-12T04:02:37.488Z,7.68
2023-04-12T04:05:43.094Z,7.85
2023-04-12T04:08:47.403Z,9.95
2023-04-12T04:11:52.254Z,9.32
2023-04-12T04:14:57.519Z,7.35
2023-04-12T04:18:06.324Z,6.80
2023-04-12T04:21:10.089Z,4.95
2023-04-12T04:24:14.978Z,8.48
2023-04-12T04:27:22.849Z,6.03
2023-04-12T04:30:27.861Z,5.10
2023-04-12T04:33:35.094Z,5.78
2023-04-12T04:36:39.312Z,6.20
2023-04-12T04:39:44.046Z,5.17
2023-04-12T04:42:54.980Z,4.40
2023-04-12T04:46:02.907Z,3.70
2023-04-12T04:49:06.967Z,4.45
2023-04-12T04:52:10.672Z,2.03
2023-04-12T04:55:14.438Z,4.40
2023-04-12T04:58:20.992Z,4.18
2023-04-12T05:01:29.033Z,4.80
2023-04-12T05:04:35.332Z,4.40
2023-04-12T05:07:39.320Z,3.55
2023-04-12T05:10:45.080Z,3.13
2023-04-12T05:13:48.363Z,4.25
2023-04-12T05:16:51.850Z,4.38
2023-04-12T05:19:55.488Z,6.57
2023-04-12T05:22:58.682Z,4.20
2023-04-12T05:26:02.424Z,6.55
2023-04-12T05:29:07.145Z,6.25
2023-04-12T05:32:10.398Z,4.07
2023-04-12T05:35:14.188Z,4.18
2023-04-12T05:38:19.701Z,3.70
2023-04-12T05:41:30.436Z,3.90
2023-04-12T05:44:36.553Z,3.90
2023-04-12T05:47:42.680Z,7.68
2023-04-12T05:50:54.242Z,4.07
2023-04-12T05:53:59.083Z,3.45
2023-04-12T05:57:08.145Z,6.28
2023-04-12T06:00:19.023Z,4.87
2023-04-12T06:03:26.765Z,5.13
2023-04-12T06:06:35.436Z,5.90
2023-04-12T06:09:38.911Z,5.80
2023-04-12T06:12:42.188Z,8.13
2023-04-12T06:15:45.790Z,10.13
2023-04-12T06:18:49.489Z,6.47
2023-04-12T06:21:53.335Z,8.48
2023-04-12T06:24:57.161Z,6.38
2023-04-12T06:28:01.009Z,4.22
2023-04-12T06:31:05.162Z,4.75
2023-04-12T06:34:12.945Z,7.45
2023-04-12T06:37:16.610Z,7.65
2023-04-12T06:45:07.969Z,5.13
2023-04-12T06:48:11.076Z,3.92
2023-04-12T06:51:14.262Z,6.35
2023-04-12T06:54:17.402Z,4.70
2023-04-12T06:57:20.939Z,7.95
2023-04-12T07:00:24.739Z,5.50
2023-04-12T07:03:29.039Z,3.83
2023-04-12T07:06:33.903Z,6.25
2023-04-12T07:09:38.055Z,4.75
2023-04-12T07:13:05.545Z,6.07
2023-04-12T07:16:58.522Z,5.57
2023-04-12T07:20:09.155Z,6.20
2023-04-12T07:24:29.523Z,7.07
2023-04-12T07:27:36.551Z,5.18
2023-04-12T07:30:48.363Z,5.53
2023-04-12T07:34:03.144Z,5.32
2023-04-12T07:37:51.648Z,4.88
2023-04-12T07:49:35.027Z,5.97
2023-04-12T07:52:43.094Z,4.55
2023-04-12T07:56:54.109Z,9.20
2023-04-12T08:04:51.954Z,6.75
2023-04-12T08:11:52.519Z,11.13
2023-04-12T08:14:58.275Z,18.40
2023-04-12T08:22:59.972Z,7.93
2023-04-12T08:26:03.499Z,7.22
2023-04-12T08:29:07.162Z,8.23
2023-04-12T08:32:13.194Z,3.78
2023-04-12T08:35:16.758Z,5.63
2023-04-12T08:38:50.451Z,4.32
2023-04-12T08:42:04.717Z,3.47
2023-04-12T08:45:26.226Z,6.97
2023-04-12T08:56:18.710Z,8.10
2023-04-12T08:59:59.418Z,2.90
2023-04-12T09:03:39.264Z,2.00
2023-04-12T09:15:14.391Z,8.23
2023-04-12T09:18:33.280Z,6.90
2023-04-12T09:26:55.538Z,6.30
2023-04-12T09:44:55.756Z,4.15
2023-04-12T09:52:52.259Z,17.17
2023-04-12T10:00:59.993Z,4.30
2023-04-12T10:04:42.066Z,3.13
2023-04-12T10:12:03.104Z,5.65
2023-04-12T10:15:19.528Z,3.92
2023-04-12T10:18:32.525Z,2.90
2023-04-12T10:33:56.582Z,3.17
2023-04-12T10:37:01.870Z,5.78
2023-04-12T10:40:05.220Z,7.18
2023-04-12T10:43:20.472Z,21.48
2023-04-12T10:50:32.732Z,19.75
2023-04-12T10:53:38.468Z,25.08
2023-04-12T10:56:45.101Z,60.58
2023-04-12T11:00:15.407Z,33.67
2023-04-12T11:03:19.012Z,11.77
2023-04-12T11:06:40.919Z,5.07
2023-04-12T11:10:02.851Z,2.85
2023-04-12T11:13:11.689Z,2.58
2023-04-12T11:16:16.156Z,1.77
2023-04-12T11:19:20.124Z,2.58
2023-04-12T11:22:25.916Z,1.60
2023-04-12T11:25:30.148Z,2.50
2023-04-12T11:28:35.252Z,2.42
2023-04-12T11:31:40.266Z,3.00
2023-04-12T11:34:45.940Z,1.63
2023-04-12T11:37:49.130Z,2.17
2023-04-12T11:40:52.350Z,1.42
2023-04-12T11:43:56.009Z,2.47
2023-04-12T11:46:59.405Z,1.58
2023-04-12T11:50:06.823Z,1.40
2023-04-12T11:53:20.204Z,1.58
2023-04-12T11:56:24.524Z,2.05
2023-04-12T11:59:34.857Z,5.65
2023-04-12T12:02:46.540Z,4.55
2023-04-12T12:05:56.482Z,4.53
2023-04-12T12:09:00.149Z,1.88
2023-04-12T12:12:03.691Z,3.83
2023-04-12T12:15:08.419Z,1.40
2023-04-12T12:18:11.789Z,2.80
2023-04-12T12:21:16.197Z,1.42
2023-04-12T12:24:19.457Z,6.15
2023-04-12T12:27:35.568Z,7.50
2023-04-12T12:30:40.887Z,7.93
2023-04-12T12:33:47.192Z,14.38
2023-04-12T12:36:58.726Z,7.28
2023-04-12T12:40:02.361Z,8.52
2023-04-12T12:43:07.655Z,6.75
2023-04-12T12:46:11.174Z,7.80
2023-04-12T12:49:14.541Z,15.82
2023-04-12T12:52:18.089Z,12.07
2023-04-12T12:55:24.872Z,12.27
2023-04-12T12:58:28.125Z,23.92
2023-04-12T13:01:31.379Z,22.35
2023-04-12T13:04:34.988Z,19.98
2023-04-12T13:07:38.579Z,21.88
2023-04-12T13:10:41.983Z,23.13
2023-04-12T13:13:45.191Z,13.32
2023-04-12T13:16:49.881Z,11.55
2023-04-12T13:19:53.191Z,11.88
2023-04-12T13:22:56.716Z,14.88
2023-04-12T13:25:59.850Z,14.65
2023-04-12T13:29:04.031Z,22.83
2023-04-12T13:32:07.507Z,17.38
2023-04-12T13:35:10.986Z,10.00
2023-04-12T13:38:14.166Z,10.70
2023-04-12T13:41:17.350Z,10.90
2023-04-12T13:44:20.757Z,4.95
2023-04-12T13:47:24.371Z,7.25
2023-04-12T13:50:27.946Z,7.13
2023-04-12T13:53:31.684Z,8.27
2023-04-12T13:56:35.022Z,6.10
2023-04-12T13:59:38.336Z,10.85
2023-04-12T14:02:41.655Z,9.63
2023-04-12T14:05:44.964Z,5.90
2023-04-12T14:08:48.679Z,7.90
2023-04-12T14:11:52.092Z,5.65
2023-04-12T14:14:55.248Z,9.40
2023-04-12T14:17:58.504Z,7.72
2023-04-12T14:21:01.997Z,6.28
2023-04-12T14:24:05.473Z,6.40
2023-04-12T14:27:09.226Z,6.43
2023-04-12T14:30:12.707Z,5.80
2023-04-12T14:33:16.178Z,21.80
2023-04-12T14:36:19.922Z,8.32
2023-04-12T14:39:24.836Z,14.63
2023-04-12T14:45:31.268Z,27.55
2023-04-12T14:48:34.596Z,11.50
2023-04-12T14:51:37.860Z,10.77
2023-04-12T14:54:40.964Z,25.23
2023-04-12T14:57:45.040Z,21.70
2023-04-12T15:00:49.517Z,12.27
2023-04-12T15:03:54.955Z,8.57
2023-04-12T15:06:58.290Z,6.50
2023-04-12T15:10:01.958Z,16.35
2023-04-12T15:13:05.311Z,10.30
2023-04-12T15:16:15.791Z,17.42
2023-04-12T15:19:22.812Z,14.75
2023-04-12T15:22:27.428Z,14.13
2023-04-12T15:25:31.585Z,10.68
2023-04-12T15:28:34.844Z,7.65
2023-04-12T15:31:38.223Z,15.75
2023-04-12T15:34:41.496Z,14.10
2023-04-12T15:37:44.746Z,4.70
2023-04-12T15:40:54.292Z,13.80
2023-04-12T15:43:57.732Z,9.60
2023-04-12T15:47:11.121Z,13.48
2023-04-12T15:50:15.199Z,15.40
2023-04-12T15:53:21.848Z,21.98
2023-04-12T15:56:25.893Z,23.58
2023-04-12T15:59:30.039Z,7.22
2023-04-12T16:02:34.411Z,16.00
2023-04-12T16:05:37.882Z,12.95
2023-04-12T16:08:41.017Z,9.45
2023-04-12T16:11:44.740Z,8.63
2023-04-12T16:14:48.823Z,7.07
2023-04-12T16:17:56.810Z,10.73
2023-04-12T16:21:00.487Z,6.80
2023-04-12T16:24:03.924Z,9.30
2023-04-12T16:27:07.778Z,10.23
2023-04-12T16:30:12.667Z,7.78
2023-04-12T16:36:19.710Z,9.85
2023-04-12T16:39:22.976Z,12.82
2023-04-12T16:42:28.876Z,16.42
2023-04-12T16:45:32.208Z,26.02
2023-04-12T16:48:36.590Z,19.73
2023-04-12T16:51:39.872Z,16.00
2023-04-12T16:54:43.128Z,29.33
2023-04-12T16:57:46.927Z,34.63
2023-04-12T17:00:50.168Z,45.20
2023-04-12T17:03:53.927Z,32.65
2023-04-12T17:06:57.487Z,21.37
2023-04-12T17:10:00.633Z,21.55
2023-04-12T17:13:03.942Z,38.10
2023-04-12T17:16:07.545Z,45.10
2023-04-12T17:19:10.833Z,45.33
2023-04-12T17:22:13.960Z,58.25
2023-04-12T17:25:19.037Z,41.90
2023-04-12T17:28:25.018Z,19.45
2023-04-12T17:31:30.000Z,30.73
2023-04-12T17:34:34.497Z,30.70
2023-04-12T17:37:38.451Z,26.90
2023-04-12T17:40:41.811Z,32.83
2023-04-12T17:43:47.915Z,39.80
2023-04-12T17:46:51.220Z,45.25
2023-04-12T17:49:54.939Z,33.83
2023-04-12T17:53:00.324Z,33.75
2023-04-12T17:56:05.218Z,21.83
2023-04-12T17:59:08.430Z,17.50
2023-04-12T18:02:11.779Z,19.23
2023-04-12T18:05:15.139Z,14.98
2023-04-12T18:08:18.349Z,16.52
2023-04-12T18:11:21.668Z,20.40
2023-04-12T18:14:25.535Z,30.75
2023-04-12T18:17:28.933Z,40.97
2023-04-12T18:20:32.140Z,40.35
2023-04-12T18:23:35.291Z,29.95
2023-04-12T18:26:38.424Z,35.58
2023-04-12T18:29:41.555Z,37.85
2023-04-12T18:32:44.822Z,16.92
2023-04-12T18:35:48.100Z,26.98
2023-04-12T18:38:51.437Z,19.60
2023-04-12T18:41:54.546Z,15.85
2023-04-12T18:44:58.867Z,18.30
2023-04-12T18:48:03.998Z,26.85
2023-04-12T18:51:07.997Z,20.02
2023-04-12T18:54:14.389Z,17.37
2023-04-12T18:57:17.665Z,13.88
2023-04-12T19:00:21.967Z,15.73
2023-04-12T19:03:27.111Z,11.30
2023-04-12T19:06:31.544Z,8.77
2023-04-12T19:09:35.003Z,8.50
2023-04-12T19:12:38.291Z,8.85
2023-04-12T19:15:41.514Z,10.90
2023-04-12T19:18:44.729Z,8.13
2023-04-12T19:21:48.019Z,7.80
2023-04-12T19:24:51.138Z,8.82
2023-04-12T19:27:54.348Z,8.52
2023-04-12T19:31:00.679Z,9.57
2023-04-12T19:34:03.912Z,8.80
2023-04-12T19:37:11.694Z,9.77
2023-04-12T19:40:15.205Z,13.30
2023-04-12T19:43:21.580Z,21.17
2023-04-12T19:46:24.851Z,15.15
2023-04-12T19:49:28.341Z,16.13
2023-04-12T19:52:31.557Z,13.45
2023-04-12T19:55:34.826Z,10.23
2023-04-12T19:58:38.327Z,12.35
2023-04-12T20:01:50.961Z,9.40
2023-04-12T20:04:54.574Z,9.85
2023-04-12T20:07:57.688Z,13.10
2023-04-12T20:11:00.981Z,12.40
2023-04-12T20:14:04.271Z,12.00
2023-04-12T20:17:07.621Z,8.15
2023-04-12T20:20:11.918Z,6.45
2023-04-12T20:23:15.299Z,8.65
2023-04-12T20:26:19.118Z,6.18
2023-04-12T20:29:22.603Z,6.83
2023-04-12T20:32:26.012Z,10.95
2023-04-12T20:35:29.225Z,5.70
2023-04-12T20:38:32.485Z,10.20
2023-04-12T20:41:39.074Z,12.52
2023-04-12T20:44:42.234Z,9.55
2023-04-12T20:47:45.714Z,8.50
2023-04-12T20:50:48.816Z,11.20
2023-04-12T20:53:52.266Z,13.18
2023-04-12T20:56:55.410Z,12.45
2023-04-12T21:00:01.015Z,14.13
2023-04-12T21:03:04.785Z,13.13
2023-04-12T21:06:09.978Z,10.80
2023-04-12T21:09:13.110Z,12.02
2023-04-12T21:12:18.251Z,10.68
2023-04-12T21:15:22.775Z,18.42
2023-04-12T21:18:25.882Z,11.73
2023-04-12T21:21:29.176Z,17.60
2023-04-12T21:24:38.290Z,18.25
2023-04-12T21:27:46.327Z,16.75
2023-04-12T21:30:55.479Z,11.25
2023-04-12T21:34:02.378Z,11.05
2023-04-12T21:37:06.103Z,11.73
2023-04-12T21:40:13.150Z,11.00
2023-04-12T21:43:16.823Z,12.18
2023-04-12T21:46:20.514Z,27.60
2023-04-12T21:49:23.695Z,28.77
2023-04-12T21:52:27.382Z,47.13
2023-04-12T21:55:30.520Z,37.50
2023-04-12T21:58:34.656Z,16.17
2023-04-12T22:01:38.628Z,18.88
2023-04-12T22:04:42.805Z,20.92
2023-04-12T22:07:46.020Z,27.27
2023-04-12T22:10:49.684Z,32.67
2023-04-12T22:13:53.676Z,27.27
2023-04-12T22:16:58.221Z,34.55
2023-04-12T22:20:01.668Z,31.38
2023-04-12T22:23:05.277Z,28.30
2023-04-12T22:26:09.982Z,28.20
2023-04-12T22:29:13.159Z,24.70
2023-04-12T22:32:16.358Z,19.58
2023-04-12T22:35:21.163Z,17.63
2023-04-12T22:41:29.003Z,15.90
2023-04-12T22:44:38.957Z,18.42
2023-04-12T22:47:45.312Z,25.85
2023-04-12T22:50:48.953Z,35.97
2023-04-12T22:53:52.094Z,39.53
2023-04-12T22:56:55.451Z,24.00
2023-04-12T22:59:59.812Z,37.08
2023-04-12T23:03:04.797Z,56.92
2023-04-12T23:06:08.500Z,23.88
2023-04-12T23:09:13.062Z,31.13
2023-04-12T23:12:16.287Z,30.55
2023-04-12T23:15:19.496Z,45.80
2023-04-12T23:18:22.718Z,49.13
2023-04-12T23:21:25.916Z,81.72
2023-04-12T23:24:29.161Z,98.40
2023-04-12T23:27:32.598Z,69.28
2023-04-12T23:30:35.708Z,53.15
2023-04-12T23:33:43.700Z,70.90
2023-04-12T23:36:46.856Z,87.70
2023-04-12T23:39:50.021Z,68.57
2023-04-12T23:42:53.192Z,101.82
2023-04-12T23:45:57.209Z,88.10
2023-04-12T23:49:00.334Z,93.35
2023-04-12T23:52:03.502Z,80.75
2023-04-12T23:55:07.434Z,75.57
2023-04-12T23:58:10.768Z,79.55
